Time;durP1;ratioP1;P1;durP2;ratioP2;P2;SDS_P1;SDS_P2;PMS_P1;PMS_P2;Temp;Humidity;BMP_temperature;BMP_pressure;BME280_temperature;BME280_humidity;BME280_pressure;Samples;Min_cycle;Max_cycle;Signal;HPM_P1;HPM_P2
2022/05/07 00:01:17;;;;;;;25.93;23.17;;;10.70;99.90;;;;;;5031043;28;20532;-66
2022/05/07 00:03:44;;;;;;;31.00;25.00;;;10.70;99.90;;;;;;5029599;28;20460;-66
2022/05/07 00:06:12;;;;;;;29.60;25.80;;;10.60;99.90;;;;;;5027487;28;20464;-67
2022/05/07 00:08:39;;;;;;;31.33;26.30;;;10.60;99.90;;;;;;5030663;28;20878;-67
2022/05/07 00:11:06;;;;;;;29.03;25.87;;;10.60;99.90;;;;;;5029552;28;20917;-67
2022/05/07 00:13:34;;;;;;;32.30;25.70;;;10.60;99.90;;;;;;5031759;28;20837;-66
2022/05/07 00:18:45;;;;;;;26.07;23.37;;;10.50;99.90;;;;;;5028836;28;20451;-67
2022/05/07 00:21:12;;;;;;;30.40;25.77;;;10.40;99.90;;;;;;5027577;28;20468;-67
2022/05/07 00:23:39;;;;;;;36.77;26.30;;;10.40;99.90;;;;;;5030516;28;20478;-67
2022/05/07 00:26:06;;;;;;;31.60;25.50;;;10.40;99.90;;;;;;5034973;28;20467;-67
2022/05/07 00:28:36;;;;;;;29.90;26.90;;;10.30;99.90;;;;;;5027826;28;20967;-67
2022/05/07 00:31:03;;;;;;;31.90;24.77;;;10.30;99.90;;;;;;5034014;28;20903;-70
2022/05/07 00:33:30;;;;;;;28.40;25.40;;;10.30;99.90;;;;;;5032839;28;20459;-69
2022/05/07 00:35:57;;;;;;;29.33;25.83;;;10.30;99.90;;;;;;5029347;28;20831;-69
2022/05/07 00:38:24;;;;;;;28.77;24.63;;;10.30;99.90;;;;;;5035174;28;20464;-69
2022/05/07 00:40:51;;;;;;;30.20;26.37;;;10.20;99.90;;;;;;5031894;28;20461;-68
2022/05/07 00:43:18;;;;;;;30.43;27.13;;;10.30;99.90;;;;;;5032145;28;20474;-70
2022/05/07 00:45:47;;;;;;;30.77;26.07;;;10.20;99.90;;;;;;5031001;28;20630;-69
2022/05/07 00:48:16;;;;;;;33.80;27.80;;;10.20;99.90;;;;;;5030517;28;20470;-70
2022/05/07 00:53:30;;;;;;;32.03;26.37;;;10.00;99.90;;;;;;5035532;28;20819;-69
2022/05/07 00:55:57;;;;;;;29.33;26.10;;;9.90;99.90;;;;;;5029722;28;20478;-70
2022/05/07 00:58:24;;;;;;;30.80;27.47;;;9.90;99.90;;;;;;5030314;28;20969;-70
2022/05/07 01:00:53;;;;;;;29.33;26.30;;;9.90;99.90;;;;;;5035276;28;20912;-69
2022/05/07 01:03:21;;;;;;;29.30;26.27;;;9.90;99.90;;;;;;5027182;28;20532;-66
2022/05/07 01:05:48;;;;;;;29.80;26.63;;;9.90;99.90;;;;;;5028045;28;20487;-67
2022/05/07 01:08:15;;;;;;;34.23;26.10;;;9.90;99.90;;;;;;5033571;28;20475;-66
2022/05/07 01:10:43;;;;;;;33.00;26.07;;;9.80;99.90;;;;;;5028467;28;20557;-66
2022/05/07 01:13:10;;;;;;;30.30;27.03;;;9.80;99.90;;;;;;5030560;28;20796;-67
2022/05/07 01:15:44;;;;;;;31.23;26.00;;;9.90;99.90;;;;;;5029001;28;20467;-67
2022/05/07 01:18:12;;;;;;;35.53;26.93;;;9.90;99.90;;;;;;5031983;28;20518;-66
2022/05/07 01:20:39;;;;;;;32.27;26.17;;;9.90;99.90;;;;;;5031000;28;20464;-67
2022/05/07 01:23:09;;;;;;;31.03;26.63;;;9.90;99.90;;;;;;5030816;28;20463;-67
2022/05/07 01:25:36;;;;;;;31.90;27.43;;;10.00;99.90;;;;;;5026112;28;20977;-66
2022/05/07 01:28:03;;;;;;;34.30;27.80;;;9.90;99.90;;;;;;5030769;28;20939;-67
2022/05/07 01:30:29;;;;;;;30.53;27.27;;;9.90;99.90;;;;;;5031275;28;20484;-66
2022/05/07 01:32:56;;;;;;;28.87;25.83;;;9.90;99.90;;;;;;5026504;28;20465;-67
2022/05/07 01:35:23;;;;;;;37.60;29.53;;;9.90;99.90;;;;;;5031337;28;20488;-67
2022/05/07 01:37:51;;;;;;;30.87;25.87;;;9.90;99.90;;;;;;5033788;28;20474;-67
2022/05/07 01:40:19;;;;;;;31.23;27.70;;;9.90;99.90;;;;;;5026235;28;20465;-67
2022/05/07 01:42:46;;;;;;;31.57;25.83;;;10.00;99.90;;;;;;5031408;28;20960;-66
2022/05/07 01:45:13;;;;;;;38.03;26.57;;;9.90;99.90;;;;;;5025256;28;20472;-67
2022/05/07 01:50:25;;;;;;;36.03;26.80;;;10.00;99.90;;;;;;5025997;28;20509;-67
2022/05/07 01:52:52;;;;;;;29.33;25.13;;;9.90;99.90;;;;;;5029010;28;20467;-67
2022/05/07 01:55:20;;;;;;;28.93;26.07;;;9.90;99.90;;;;;;5034234;28;20468;-67
2022/05/07 01:57:47;;;;;;;29.60;26.53;;;9.90;99.90;;;;;;5026847;28;20506;-67
2022/05/07 02:00:14;;;;;;;29.03;25.33;;;9.90;99.90;;;;;;5024853;28;20480;-67
2022/05/07 02:02:41;;;;;;;27.67;24.73;;;9.90;99.90;;;;;;5028746;28;20464;-69
2022/05/07 02:05:09;;;;;;;28.23;25.17;;;9.90;99.90;;;;;;5030661;28;20941;-69
2022/05/07 02:07:35;;;;;;;28.50;25.40;;;9.90;99.90;;;;;;5031195;28;20472;-69
2022/05/07 02:10:03;;;;;;;32.30;24.63;;;9.90;99.90;;;;;;5030636;28;20465;-70
2022/05/07 02:12:32;;;;;;;30.07;26.60;;;9.90;99.90;;;;;;5029392;28;20519;-69
2022/05/07 02:14:58;;;;;;;28.57;25.03;;;10.00;99.90;;;;;;5029904;28;20460;-70
2022/05/07 02:17:25;;;;;;;31.93;25.90;;;10.10;99.90;;;;;;5028007;28;20467;-70
2022/05/07 02:19:52;;;;;;;30.53;24.90;;;10.20;99.90;;;;;;5031891;28;20471;-69
2022/05/07 02:22:19;;;;;;;29.13;25.17;;;10.30;99.90;;;;;;5026136;28;20462;-70
2022/05/07 02:24:47;;;;;;;29.10;24.40;;;10.40;99.90;;;;;;5033543;28;20567;-69
2022/05/07 02:27:14;;;;;;;30.90;25.13;;;10.40;99.90;;;;;;5025340;28;20560;-69
2022/05/07 02:32:23;;;;;;;32.23;27.33;;;10.50;99.90;;;;;;5033842;28;20998;-69
2022/05/07 02:34:49;;;;;;;31.33;25.83;;;10.50;99.90;;;;;;5028126;28;20475;-69
2022/05/07 02:37:16;;;;;;;32.23;25.30;;;10.70;99.90;;;;;;5026645;28;20464;-69
2022/05/07 02:39:43;;;;;;;44.30;25.73;;;10.80;99.90;;;;;;5033245;28;20465;-69
2022/05/07 02:44:56;;;;;;;34.97;24.20;;;11.10;99.90;;;;;;5025511;28;20452;-69
2022/05/07 02:47:23;;;;;;;28.60;24.63;;;11.20;99.90;;;;;;5031107;28;20972;-70
2022/05/07 02:49:51;;;;;;;34.23;24.60;;;11.30;99.90;;;;;;5029492;28;20973;-69
2022/05/07 02:52:19;;;;;;;31.43;23.10;;;11.50;99.90;;;;;;5029726;28;20849;-69
2022/05/07 02:54:46;;;;;;;28.63;23.00;;;11.60;99.90;;;;;;5028404;28;21005;-68
2022/05/07 02:57:13;;;;;;;32.47;25.13;;;11.80;99.90;;;;;;5034831;28;20489;-69
2022/05/07 02:59:41;;;;;;;26.33;23.30;;;11.90;99.90;;;;;;5039186;28;20470;-69
2022/05/07 03:02:10;;;;;;;29.87;23.70;;;11.90;99.90;;;;;;5029721;28;20989;-69
2022/05/07 03:04:37;;;;;;;31.27;23.80;;;11.90;99.90;;;;;;5030090;28;20519;-69
2022/05/07 03:07:04;;;;;;;26.10;21.90;;;11.90;99.90;;;;;;5030555;28;20467;-70
2022/05/07 03:09:31;;;;;;;27.20;23.03;;;11.90;99.90;;;;;;5034347;28;20467;-69
2022/05/07 03:11:59;;;;;;;30.20;22.40;;;11.80;99.90;;;;;;5026035;28;20753;-70
2022/05/07 03:14:26;;;;;;;27.40;24.20;;;11.70;99.90;;;;;;5025907;28;20527;-70
2022/05/07 03:16:53;;;;;;;26.93;24.17;;;11.50;99.90;;;;;;5030468;28;20855;-70
2022/05/07 03:19:21;;;;;;;27.77;23.20;;;11.40;99.90;;;;;;5026455;28;20472;-69
2022/05/07 03:21:48;;;;;;;28.43;24.13;;;11.30;99.90;;;;;;5024495;28;20528;-69
2022/05/07 03:24:15;;;;;;;26.67;23.27;;;11.20;99.90;;;;;;5033608;28;20460;-70
2022/05/07 03:26:42;;;;;;;30.73;24.83;;;11.20;99.90;;;;;;5028853;28;20841;-69
2022/05/07 03:29:09;;;;;;;27.60;23.40;;;11.10;99.90;;;;;;5032349;28;20460;-67
2022/05/07 03:31:37;;;;;;;29.53;24.70;;;11.00;99.90;;;;;;5028898;28;20487;-67
2022/05/07 03:34:04;;;;;;;27.50;24.63;;;11.00;99.90;;;;;;5033037;28;20461;-67
2022/05/07 03:36:32;;;;;;;30.13;23.73;;;10.90;99.90;;;;;;5033504;28;20765;-68
2022/05/07 03:39:00;;;;;;;26.87;24.07;;;10.80;99.90;;;;;;5031440;28;20473;-67
2022/05/07 03:41:27;;;;;;;26.57;22.73;;;10.80;99.90;;;;;;5028641;28;20777;-68
2022/05/07 03:43:54;;;;;;;39.83;24.23;;;10.70;99.90;;;;;;5028304;28;20647;-68
2022/05/07 03:46:24;;;;;;;30.50;24.93;;;10.70;99.90;;;;;;5029287;28;20500;-67
2022/05/07 03:48:52;;;;;;;26.63;23.83;;;10.70;99.90;;;;;;5028476;28;20534;-68
2022/05/07 03:51:19;;;;;;;27.97;24.00;;;10.60;99.90;;;;;;5025224;28;20522;-68
2022/05/07 03:53:46;;;;;;;26.77;23.90;;;10.60;99.90;;;;;;5023968;28;20464;-68
2022/05/07 03:56:13;;;;;;;28.43;23.63;;;10.50;99.90;;;;;;5027154;28;20511;-68
2022/05/07 03:58:41;;;;;;;24.53;21.93;;;10.50;99.90;;;;;;5026667;28;20464;-67
2022/05/07 04:01:08;;;;;;;26.67;22.17;;;10.50;99.90;;;;;;5026027;28;20461;-68
2022/05/07 04:03:36;;;;;;;24.63;22.00;;;10.50;99.90;;;;;;5009384;28;20465;-67
2022/05/07 04:06:04;;;;;;;25.80;23.30;;;10.40;99.90;;;;;;4999135;28;20503;-68
2022/05/07 04:08:31;;;;;;;30.03;24.10;;;10.40;99.90;;;;;;5000377;28;20901;-68
2022/05/07 04:10:59;;;;;;;27.13;23.67;;;10.40;99.90;;;;;;5000801;28;20854;-67
2022/05/07 04:13:26;;;;;;;26.60;23.83;;;10.40;99.90;;;;;;5001164;28;20467;-67
2022/05/07 04:15:52;;;;;;;27.80;24.13;;;10.40;99.90;;;;;;5000669;28;20961;-68
2022/05/07 04:18:19;;;;;;;27.53;24.70;;;10.40;99.90;;;;;;5001572;28;20472;-68
2022/05/07 04:20:46;;;;;;;27.13;24.30;;;10.30;99.90;;;;;;5000893;28;21543;-68
2022/05/07 04:23:13;;;;;;;30.03;25.20;;;10.30;99.90;;;;;;5002621;28;21009;-68
2022/05/07 04:25:41;;;;;;;28.77;24.87;;;10.30;99.90;;;;;;5004219;28;21331;-67
2022/05/07 04:28:10;;;;;;;29.00;25.40;;;10.30;99.90;;;;;;5002937;28;20851;-67
2022/05/07 04:30:37;;;;;;;30.00;21.47;;;10.40;99.90;;;;;;5005083;28;20944;-68
2022/05/07 04:33:05;;;;;;;29.07;23.40;;;10.50;99.90;;;;;;5016290;28;20503;-68
2022/05/07 04:35:32;;;;;;;30.33;25.30;;;10.50;99.90;;;;;;5029069;28;20869;-68
2022/05/07 04:37:59;;;;;;;28.93;24.60;;;10.50;99.90;;;;;;5006699;28;20468;-67
2022/05/07 04:40:25;;;;;;;28.43;23.90;;;10.60;99.90;;;;;;5006488;28;20468;-67
2022/05/07 04:42:52;;;;;;;26.30;22.87;;;10.60;99.90;;;;;;5006455;28;20757;-67
2022/05/07 04:45:21;;;;;;;27.70;23.60;;;10.70;99.90;;;;;;5007024;28;20555;-68
2022/05/07 04:47:47;;;;;;;35.67;24.47;;;10.80;99.90;;;;;;5006211;28;21049;-67
2022/05/07 04:50:14;;;;;;;28.63;23.37;;;10.90;99.90;;;;;;5005607;28;20468;-68
2022/05/07 04:52:41;;;;;;;26.00;21.30;;;10.90;99.90;;;;;;5006448;28;20473;-68
2022/05/07 04:55:08;;;;;;;29.90;24.67;;;11.00;99.90;;;;;;5005014;28;22389;-68
2022/05/07 04:57:36;;;;;;;30.93;22.70;;;11.10;99.90;;;;;;5004934;28;20488;-68
2022/05/07 05:00:04;;;;;;;30.80;23.70;;;11.20;99.90;;;;;;5005236;28;20467;-67
2022/05/07 05:02:33;;;;;;;29.90;25.20;;;11.30;99.90;;;;;;5004884;28;20799;-68
2022/05/07 05:05:00;;;;;;;25.30;22.63;;;11.50;99.90;;;;;;5004355;28;20496;-67
2022/05/07 05:07:27;;;;;;;25.90;23.23;;;11.60;99.90;;;;;;5005794;28;20459;-68
2022/05/07 05:09:54;;;;;;;30.20;23.90;;;11.70;99.90;;;;;;5005644;28;20473;-68
2022/05/07 05:12:22;;;;;;;27.30;23.37;;;11.90;99.90;;;;;;5003912;28;20496;-68
2022/05/07 05:15:05;;;;;;;27.63;22.73;;;12.00;99.90;;;;;;5004300;28;20504;-68
2022/05/07 05:17:34;;;;;;;29.27;22.87;;;12.20;99.90;;;;;;5004661;28;20469;-68
2022/05/07 05:20:03;;;;;;;27.60;22.57;;;12.50;99.90;;;;;;5004713;28;20453;-68
2022/05/07 05:22:30;;;;;;;24.87;22.27;;;12.70;99.90;;;;;;5003543;28;20478;-68
2022/05/07 05:24:57;;;;;;;29.27;23.00;;;13.00;99.90;;;;;;5004110;28;20473;-68
2022/05/07 05:27:24;;;;;;;23.77;20.07;;;13.30;99.90;;;;;;5003398;28;21143;-68
2022/05/07 05:29:51;;;;;;;26.40;21.70;;;13.50;99.90;;;;;;5008260;28;21036;-68
2022/05/07 05:32:18;;;;;;;25.77;22.80;;;13.50;99.90;;;;;;5028254;28;20527;-67
2022/05/07 05:34:52;;;;;;;25.50;22.80;;;13.80;99.90;;;;;;5002477;28;20473;-68
2022/05/07 05:37:19;;;;;;;22.93;20.60;;;14.00;99.90;;;;;;5004378;28;20479;-67
2022/05/07 05:39:47;;;;;;;24.80;22.17;;;14.20;99.90;;;;;;5004794;28;20469;-68
2022/05/07 05:42:14;;;;;;;29.40;22.37;;;14.40;99.90;;;;;;5002097;28;20897;-69
2022/05/07 05:44:42;;;;;;;26.33;22.87;;;14.60;99.90;;;;;;5003945;28;20819;-67
2022/05/07 05:47:10;;;;;;;22.20;20.20;;;14.70;99.90;;;;;;5000576;28;20749;-68
2022/05/07 05:49:37;;;;;;;32.50;22.40;;;14.70;99.90;;;;;;5004058;28;20465;-67
2022/05/07 05:52:07;;;;;;;23.23;20.93;;;14.90;99.90;;;;;;5002121;28;20951;-68
2022/05/07 05:54:49;;;;;;;24.30;21.90;;;15.00;99.90;;;;;;5003972;28;22199;-68
2022/05/07 05:57:16;;;;;;;24.27;21.20;;;14.80;99.90;;;;;;5004336;28;20857;-67
2022/05/07 05:59:43;;;;;;;24.00;20.90;;;14.90;99.90;;;;;;5005381;28;20452;-69
2022/05/07 06:02:10;;;;;;;23.10;21.07;;;15.00;99.90;;;;;;5002574;28;20489;-67
2022/05/07 06:04:36;;;;;;;23.07;20.80;;;15.20;99.90;;;;;;5003439;28;20495;-67
2022/05/07 06:07:05;;;;;;;26.60;21.37;;;15.30;99.90;;;;;;5004215;28;20464;-68
2022/05/07 06:09:32;;;;;;;24.10;21.50;;;15.50;99.90;;;;;;5003160;28;20477;-67
2022/05/07 06:11:59;;;;;;;23.67;21.33;;;15.50;99.90;;;;;;5004278;28;20503;-67
2022/05/07 06:14:27;;;;;;;26.07;22.17;;;15.50;99.90;;;;;;5003537;28;20480;-67
2022/05/07 06:16:53;;;;;;;22.97;20.60;;;15.70;99.90;;;;;;5003452;28;20476;-68
2022/05/07 06:19:20;;;;;;;27.07;21.70;;;15.90;99.90;;;;;;5003276;28;20516;-67
2022/05/07 06:21:47;;;;;;;33.33;22.93;;;16.10;99.90;;;;;;5003966;28;20491;-68
2022/05/07 06:29:44;;;;;;;28.73;22.00;;;16.00;99.90;;;;;;5003074;28;20518;-68
2022/05/07 06:32:11;;;;;;;24.13;21.80;;;16.20;99.90;;;;;;5003146;28;20573;-68
2022/05/07 06:34:38;;;;;;;24.10;21.67;;;16.20;99.90;;;;;;5003942;28;20472;-68
2022/05/07 06:37:05;;;;;;;23.47;21.13;;;16.40;99.90;;;;;;5030410;28;20473;-67
2022/05/07 06:39:33;;;;;;;21.63;19.63;;;16.80;99.90;;;;;;5027989;28;20464;-68
2022/05/07 06:42:00;;;;;;;23.07;20.80;;;17.00;99.90;;;;;;5025293;28;20471;-67
2022/05/07 06:44:27;;;;;;;24.30;21.70;;;17.00;99.90;;;;;;5005044;28;20490;-67
2022/05/07 06:46:56;;;;;;;25.57;23.00;;;17.30;99.90;;;;;;5003149;28;20519;-67
2022/05/07 06:49:23;;;;;;;24.37;22.17;;;17.60;99.90;;;;;;5002529;28;20592;-68
2022/05/07 06:51:50;;;;;;;24.80;22.50;;;18.00;99.90;;;;;;5002334;28;20502;-67
2022/05/07 06:54:17;;;;;;;24.87;22.40;;;18.00;99.90;;;;;;5001598;28;20452;-67
2022/05/07 06:56:45;;;;;;;24.60;22.10;;;17.70;99.90;;;;;;5001288;28;20492;-68
2022/05/07 06:59:12;;;;;;;23.40;21.10;;;17.80;99.90;;;;;;5001388;28;20468;-68
2022/05/07 07:01:39;;;;;;;23.47;21.00;;;17.80;99.90;;;;;;5025299;28;20468;-67
2022/05/07 07:04:06;;;;;;;24.00;21.50;;;17.70;99.90;;;;;;5025929;28;21307;-68
2022/05/07 07:06:33;;;;;;;22.77;20.43;;;18.10;99.90;;;;;;5022088;28;20474;-67
2022/05/07 07:09:00;;;;;;;25.37;22.90;;;18.20;99.90;;;;;;5010605;28;20481;-68
2022/05/07 07:11:27;;;;;;;24.30;22.00;;;18.30;99.90;;;;;;5002183;28;21001;-69
2022/05/07 07:13:55;;;;;;;25.87;23.30;;;18.30;99.90;;;;;;5001699;28;20495;-68
2022/05/07 07:19:04;;;;;;;25.57;23.07;;;18.70;99.90;;;;;;5003338;28;20498;-68
2022/05/07 07:21:31;;;;;;;25.20;22.90;;;19.00;99.90;;;;;;5002241;28;20476;-68
2022/05/07 07:23:59;;;;;;;26.73;23.87;;;18.70;99.90;;;;;;5001887;28;20456;-68
2022/05/07 07:26:26;;;;;;;27.03;24.37;;;19.10;99.90;;;;;;5002563;28;20473;-67
2022/05/07 07:28:53;;;;;;;26.93;24.10;;;19.40;99.90;;;;;;5002904;28;20472;-67
2022/05/07 07:31:21;;;;;;;28.03;25.33;;;19.40;99.90;;;;;;5002685;28;20476;-68
2022/05/07 07:33:48;;;;;;;28.13;25.33;;;19.50;99.90;;;;;;5002180;28;20864;-68
2022/05/07 07:36:15;;;;;;;26.50;24.00;;;19.70;99.90;;;;;;5002272;28;20533;-68
2022/05/07 07:38:42;;;;;;;29.97;26.87;;;19.80;99.90;;;;;;5001200;28;20471;-68
2022/05/07 07:41:09;;;;;;;28.73;26.03;;;19.80;99.90;;;;;;5001092;28;20469;-68
2022/05/07 07:43:38;;;;;;;27.17;24.40;;;19.80;99.90;;;;;;5001891;28;20475;-68
2022/05/07 07:48:50;;;;;;;28.77;25.80;;;19.30;99.90;;;;;;5001188;28;20479;-67
2022/05/07 07:51:18;;;;;;;27.43;24.63;;;19.60;99.90;;;;;;5001926;28;20468;-68
2022/05/07 07:53:45;;;;;;;27.23;24.80;;;19.80;99.90;;;;;;5002101;28;20492;-68
2022/05/07 07:56:12;;;;;;;26.67;24.43;;;20.00;99.90;;;;;;5001441;28;20620;-68
2022/05/07 07:58:40;;;;;;;29.77;24.00;;;20.00;99.90;;;;;;5004578;28;21128;-68
2022/05/07 08:01:07;;;;;;;29.13;26.13;;;19.80;99.90;;;;;;5005041;28;21245;-68
2022/05/07 08:03:33;;;;;;;28.00;25.27;;;19.80;99.90;;;;;;5004669;28;20546;-68
2022/05/07 08:06:02;;;;;;;27.00;24.50;;;19.80;99.90;;;;;;5005397;28;20784;-68
2022/05/07 08:13:57;;;;;;;26.80;24.10;;;19.80;99.90;;;;;;5004569;28;20785;-68
2022/05/07 08:16:25;;;;;;;26.00;23.70;;;19.90;99.90;;;;;;5006004;28;20469;-67
2022/05/07 08:18:52;;;;;;;27.77;24.90;;;20.00;99.90;;;;;;5005144;28;20491;-69
2022/05/07 08:21:20;;;;;;;28.53;25.43;;;19.10;99.90;;;;;;5004896;28;21045;-68
2022/05/07 08:23:47;;;;;;;27.57;24.63;;;18.90;99.90;;;;;;5004226;28;21155;-68
2022/05/07 08:26:14;;;;;;;27.03;24.17;;;19.10;99.90;;;;;;5003203;28;20456;-67
2022/05/07 08:28:42;;;;;;;27.47;24.70;;;19.10;99.90;;;;;;5005404;28;20468;-68
2022/05/07 08:31:10;;;;;;;26.10;23.43;;;19.10;99.90;;;;;;5005290;28;20660;-68
2022/05/07 08:33:41;;;;;;;32.00;24.63;;;19.30;99.90;;;;;;5004638;28;21112;-68
2022/05/07 08:36:08;;;;;;;29.30;24.77;;;19.70;99.90;;;;;;5006446;28;20468;-67
2022/05/07 08:38:37;;;;;;;28.70;25.60;;;20.10;99.90;;;;;;5026518;28;20465;-67
2022/05/07 08:41:04;;;;;;;28.70;25.60;;;20.40;99.90;;;;;;5033291;28;20465;-67
2022/05/07 08:43:36;;;;;;;29.83;25.70;;;20.20;99.90;;;;;;5032156;28;20534;-68
2022/05/07 08:46:10;;;;;;;28.93;25.83;;;20.80;99.90;;;;;;5012417;28;20602;-68
2022/05/07 08:48:39;;;;;;;28.20;25.13;;;21.30;99.90;;;;;;5005350;28;20647;-68
2022/05/07 08:51:07;;;;;;;31.07;25.10;;;21.80;99.90;;;;;;5005835;28;20560;-67
2022/05/07 08:53:34;;;;;;;28.00;25.00;;;22.20;99.90;;;;;;5004608;28;20516;-68
2022/05/07 08:56:03;;;;;;;28.30;25.23;;;22.30;99.90;;;;;;5004799;28;20714;-68
2022/05/07 08:58:30;;;;;;;29.40;26.60;;;21.70;99.90;;;;;;5005508;28;21027;-67
2022/05/07 09:00:59;;;;;;;28.97;25.47;;;20.50;99.90;;;;;;5005026;28;20461;-68
2022/05/07 09:03:26;;;;;;;28.23;25.30;;;21.10;99.90;;;;;;5004943;28;20919;-68
2022/05/07 09:05:53;;;;;;;28.60;26.10;;;21.30;99.90;;;;;;5004947;28;20488;-68
2022/05/07 09:08:26;;;;;;;36.33;26.20;;;21.50;99.90;;;;;;5003468;28;20461;-67
2022/05/07 09:10:55;;;;;;;29.57;26.87;;;22.10;99.90;;;;;;5004440;28;20480;-68
2022/05/07 09:13:23;;;;;;;28.10;25.50;;;22.80;99.90;;;;;;5004999;28;21570;-68
2022/05/07 09:15:52;;;;;;;27.67;25.13;;;22.60;99.90;;;;;;5003072;28;20472;-68
2022/05/07 09:18:21;;;;;;;29.10;26.40;;;22.90;99.90;;;;;;5004817;28;20837;-68
2022/05/07 09:21:15;;;;;;;33.50;26.10;;;22.40;99.90;;;;;;5004100;28;20755;-68
2022/05/07 09:23:44;;;;;;;26.87;24.03;;;22.20;99.90;;;;;;5004480;28;20472;-68
2022/05/07 09:26:11;;;;;;;29.07;24.53;;;22.50;99.90;;;;;;5004784;28;20577;-67
2022/05/07 09:28:40;;;;;;;30.60;27.40;;;22.60;99.90;;;;;;5003545;28;20595;-68
2022/05/07 09:31:08;;;;;;;28.57;25.37;;;22.10;99.90;;;;;;5003590;28;20467;-67
2022/05/07 09:33:35;;;;;;;26.63;24.20;;;23.00;99.90;;;;;;5004583;28;20496;-68
2022/05/07 09:36:10;;;;;;;29.10;26.10;;;22.40;99.90;;;;;;5003522;28;21179;-68
2022/05/07 09:38:38;;;;;;;27.57;24.97;;;23.10;99.90;;;;;;5004207;28;20896;-68
2022/05/07 09:41:05;;;;;;;28.57;25.97;;;23.10;99.90;;;;;;5003569;28;20445;-69
2022/05/07 09:43:33;;;;;;;27.57;25.10;;;22.80;99.90;;;;;;5004596;28;21107;-69
2022/05/07 09:46:02;;;;;;;28.83;26.10;;;22.30;99.90;;;;;;5003991;28;20471;-68
2022/05/07 09:48:31;;;;;;;29.30;26.57;;;22.70;99.90;;;;;;5004370;28;20480;-68
2022/05/07 09:50:58;;;;;;;29.10;26.50;;;23.30;99.90;;;;;;5004708;28;20905;-69
2022/05/07 09:58:54;;;;;;;34.17;28.83;;;22.20;99.90;;;;;;5004030;28;20472;-68
2022/05/07 10:01:32;;;;;;;28.87;25.97;;;21.60;99.90;;;;;;5002524;28;20495;-68
2022/05/07 10:04:13;;;;;;;30.57;27.80;;;21.80;99.90;;;;;;5004195;28;21002;-68
2022/05/07 10:06:59;;;;;;;28.73;25.87;;;22.60;99.90;;;;;;5003209;28;20578;-68
2022/05/07 10:09:38;;;;;;;30.13;27.00;;;23.10;99.90;;;;;;5003844;28;20860;-68
2022/05/07 10:12:06;;;;;;;29.77;26.40;;;23.10;99.90;;;;;;5003517;28;20826;-69
2022/05/07 10:14:33;;;;;;;29.80;26.90;;;23.60;99.90;;;;;;5003685;28;20539;-69
2022/05/07 10:17:08;;;;;;;28.40;25.70;;;24.20;99.90;;;;;;5003238;28;20975;-68
2022/05/07 10:19:39;;;;;;;28.70;26.10;;;25.10;98.80;;;;;;5003742;28;20472;-68
2022/05/07 10:22:17;;;;;;;28.30;25.63;;;25.90;96.80;;;;;;5004487;28;20473;-69
2022/05/07 10:24:44;;;;;;;25.60;23.60;;;25.90;95.80;;;;;;5003389;28;20479;-68
2022/05/07 10:27:23;;;;;;;27.27;24.90;;;25.90;96.90;;;;;;5002592;28;20453;-68
2022/05/07 10:29:51;;;;;;;30.90;25.70;;;25.60;95.50;;;;;;5003188;28;20556;-69
2022/05/07 10:32:21;;;;;;;28.70;25.60;;;26.40;95.40;;;;;;5002656;28;20777;-68
2022/05/07 10:34:53;;;;;;;28.00;25.27;;;25.90;93.50;;;;;;5002568;28;20831;-68
2022/05/07 10:37:20;;;;;;;27.67;24.67;;;26.20;94.90;;;;;;5001836;28;20571;-69
2022/05/07 10:40:06;;;;;;;30.23;27.40;;;26.30;92.40;;;;;;5002363;28;20506;-69
2022/05/07 10:42:39;;;;;;;28.53;25.73;;;26.20;92.50;;;;;;5001158;28;20774;-68
2022/05/07 10:45:07;;;;;;;28.33;25.70;;;26.90;91.50;;;;;;5002419;28;20480;-69
2022/05/07 10:47:35;;;;;;;27.30;24.90;;;27.20;90.70;;;;;;5001667;28;20570;-69
2022/05/07 10:50:10;;;;;;;26.73;23.87;;;27.40;88.80;;;;;;5002603;28;20469;-69
2022/05/07 10:52:37;;;;;;;26.17;23.63;;;27.60;83.70;;;;;;5002737;28;20473;-69
2022/05/07 10:55:05;;;;;;;28.70;25.90;;;28.20;85.00;;;;;;5002318;28;20488;-69
2022/05/07 10:57:40;;;;;;;27.77;25.37;;;27.90;80.20;;;;;;5002606;28;20490;-69
2022/05/07 11:00:14;;;;;;;36.97;25.27;;;27.30;84.20;;;;;;5002875;28;20928;-69
2022/05/07 11:02:42;;;;;;;28.93;26.10;;;27.80;84.90;;;;;;5001444;28;20461;-69
2022/05/07 11:05:11;;;;;;;27.00;24.70;;;28.50;80.70;;;;;;5001489;28;20481;-69
2022/05/07 11:07:38;;;;;;;26.10;23.77;;;29.00;80.80;;;;;;5002780;28;20613;-68
2022/05/07 11:10:08;;;;;;;26.57;24.10;;;29.00;77.80;;;;;;5002147;28;20681;-68
2022/05/07 11:12:36;;;;;;;27.80;25.20;;;29.00;76.40;;;;;;5003208;28;21010;-69
2022/05/07 11:15:04;;;;;;;25.90;23.50;;;29.20;75.70;;;;;;5001819;28;21021;-68
2022/05/07 11:17:33;;;;;;;28.10;25.47;;;29.50;71.20;;;;;;5002773;28;20465;-68
2022/05/07 11:20:03;;;;;;;28.00;25.40;;;28.70;74.70;;;;;;5001705;28;20568;-69
2022/05/07 11:22:31;;;;;;;26.30;23.97;;;28.00;74.10;;;;;;5003675;28;20479;-68
2022/05/07 11:24:58;;;;;;;29.80;26.80;;;27.40;75.70;;;;;;5001521;28;20559;-69
2022/05/07 11:27:30;;;;;;;27.67;24.73;;;27.60;71.90;;;;;;5003171;28;21219;-69
2022/05/07 11:29:58;;;;;;;28.87;25.60;;;28.10;72.80;;;;;;5002886;28;20457;-70
2022/05/07 11:32:25;;;;;;;27.93;25.20;;;28.90;72.80;;;;;;5001404;28;21938;-70
2022/05/07 11:34:57;;;;;;;28.80;26.27;;;30.20;66.10;;;;;;5001035;28;20492;-69
2022/05/07 11:37:25;;;;;;;28.53;25.73;;;30.00;65.90;;;;;;5000947;28;21242;-69
2022/05/07 11:39:53;;;;;;;26.63;24.03;;;30.50;64.60;;;;;;5002688;28;20473;-70
2022/05/07 11:42:31;;;;;;;40.90;36.90;;;29.90;65.50;;;;;;5011885;28;20469;-69
2022/05/07 11:47:54;;;;;;;26.83;24.37;;;28.40;59.20;;;;;;5002421;28;20518;-69
2022/05/07 11:50:23;;;;;;;24.63;22.40;;;29.10;59.30;;;;;;5002444;28;20472;-70
2022/05/07 11:52:53;;;;;;;25.53;23.47;;;28.90;59.90;;;;;;5001806;28;20934;-69
2022/05/07 11:55:28;;;;;;;26.67;23.97;;;28.70;59.40;;;;;;5001807;28;21147;-69
2022/05/07 11:57:55;;;;;;;25.67;23.07;;;28.40;58.10;;;;;;5002486;28;21133;-69
2022/05/07 12:00:24;;;;;;;24.00;21.90;;;28.90;58.10;;;;;;5002223;28;20472;-69
2022/05/07 12:02:56;;;;;;;22.70;20.80;;;29.50;57.00;;;;;;5001552;28;21200;-69
2022/05/07 12:05:24;;;;;;;25.10;23.00;;;29.70;57.50;;;;;;5002139;28;21040;-68
2022/05/07 12:07:54;;;;;;;24.57;22.47;;;30.40;56.50;;;;;;5001357;28;20460;-69
2022/05/07 12:10:22;;;;;;;22.97;21.07;;;30.30;56.20;;;;;;5002506;28;20464;-69
2022/05/07 12:12:49;;;;;;;24.50;22.67;;;31.00;56.10;;;;;;5002235;28;20476;-69
2022/05/07 12:17:51;;;;;;;21.10;19.50;;;30.80;53.40;;;;;;5001941;28;20488;-69
2022/05/07 12:18:03;;;;;;;20.83;19.20;;;31.70;54.50;;;;;;5001476;28;20475;-69
2022/05/07 12:20:30;;;;;;;20.00;18.60;;;31.50;53.00;;;;;;5001058;28;20513;-68
2022/05/07 12:31:11;;;;;;;21.20;19.43;;;30.80;49.70;;;;;;5000946;28;20579;-69
2022/05/07 12:33:39;;;;;;;20.97;19.37;;;30.90;51.20;;;;;;5001086;28;20488;-69
2022/05/07 12:36:06;;;;;;;22.90;21.10;;;31.30;50.90;;;;;;5000605;28;20951;-69
2022/05/07 12:38:34;;;;;;;22.27;20.43;;;31.70;51.30;;;;;;4999762;28;20472;-69
2022/05/07 12:41:01;;;;;;;22.40;20.00;;;31.30;49.70;;;;;;5001886;28;20572;-70
2022/05/07 12:43:28;;;;;;;24.07;22.07;;;30.00;53.60;;;;;;5001346;28;20465;-69
2022/05/07 12:45:55;;;;;;;23.00;20.90;;;30.50;52.00;;;;;;5004780;28;20482;-69
2022/05/07 12:48:22;;;;;;;22.00;20.20;;;30.40;53.30;;;;;;5004264;28;20468;-69
2022/05/07 12:50:49;;;;;;;23.40;21.23;;;30.00;53.00;;;;;;5005260;28;20491;-69
2022/05/07 12:53:16;;;;;;;21.20;19.37;;;30.00;51.70;;;;;;5004734;28;20463;-69
2022/05/07 12:55:45;;;;;;;22.53;20.30;;;30.60;51.00;;;;;;5005023;28;20583;-69
2022/05/07 12:58:12;;;;;;;20.83;19.20;;;30.60;50.30;;;;;;5005739;28;20483;-69
2022/05/07 13:00:41;;;;;;;17.97;16.70;;;30.30;51.70;;;;;;5004894;28;20476;-69
2022/05/07 13:03:09;;;;;;;19.23;17.80;;;30.00;50.90;;;;;;5003394;28;20499;-69
2022/05/07 13:05:36;;;;;;;18.27;16.90;;;29.70;51.40;;;;;;5002371;28;21004;-69
2022/05/07 13:08:05;;;;;;;17.73;16.43;;;30.60;51.20;;;;;;5004531;28;21016;-69
2022/05/07 13:10:33;;;;;;;23.93;15.80;;;30.80;49.90;;;;;;5004940;28;20476;-69
2022/05/07 13:13:02;;;;;;;18.37;16.77;;;30.90;48.80;;;;;;5005289;28;20468;-69
2022/05/07 13:15:30;;;;;;;16.57;15.40;;;30.40;48.90;;;;;;5003373;28;20504;-69
2022/05/07 13:17:57;;;;;;;16.97;15.87;;;30.80;48.40;;;;;;5003814;28;20958;-69
2022/05/07 13:20:25;;;;;;;17.43;16.20;;;30.80;48.40;;;;;;5004197;28;20975;-69